UAL31 EDDM-KEWR
Flight info
| Callsign | UAL31 |
|---|---|
| Flight time | N/A |
| Altitude | 38000 |
| Route | GIVMI6Q GIVMI Y101 INBED DCT REKDI DCT LOHRE DCT BUB L608 DENUT L610 KOPUL Q60 OKSAW DCT BIBPE DCT OKTAD DCT MEDOG DCT PEMOB DCT BAKUR DCT VENER/M083F390 DCT 5430N02000W 5330N03000W 5130N04000W 4930N05000W DCT IBERG/N0480F400 N364A TUSKY DCT BOS DCT NELIE FLOSI4 |
| Aircraft | B772/H-SDE2E3FGHIJ5LORVWXY/LB1D1 |
Departure
| Time | 2026-05-08 06:27 |
|---|---|
| Airport | Munich Airport (EDDM) |
Arrival
| Time | N/A |
|---|---|
| Airport | Newark Liberty International Airport (KEWR) |
| Time | Latitude | Longitude | Altitude | Speed | Heading |
|---|---|---|---|---|---|
| 2026-05-08 06:04 | 48.35731 | 11.79273 | 1477 ft | 0 kts | 275° |
| 2026-05-08 06:16 | 48.35731 | 11.79286 | 1478 ft | 2 kts | 275° |
| 2026-05-08 06:17 | 48.35728 | 11.79331 | 1477 ft | 2 kts | 275° |
| 2026-05-08 06:17 | 48.35727 | 11.79354 | 1477 ft | 2 kts | 275° |
| 2026-05-08 06:17 | 48.35726 | 11.79369 | 1477 ft | 2 kts | 275° |
| 2026-05-08 06:18 | 48.35709 | 11.79410 | 1477 ft | 2 kts | 342° |
| 2026-05-08 06:18 | 48.35704 | 11.79413 | 1477 ft | 0 kts | 353° |
| 2026-05-08 06:18 | 48.35702 | 11.79413 | 1477 ft | 1 kts | 355° |
| 2026-05-08 06:19 | 48.35699 | 11.79413 | 1477 ft | 0 kts | 354° |
| 2026-05-08 06:20 | 48.35717 | 11.79410 | 1477 ft | 3 kts | 353° |
| 2026-05-08 06:20 | 48.35753 | 11.79404 | 1477 ft | 6 kts | 353° |
| 2026-05-08 06:21 | 48.35805 | 11.79395 | 1476 ft | 8 kts | 353° |
| 2026-05-08 06:21 | 48.35873 | 11.79382 | 1476 ft | 10 kts | 347° |
| 2026-05-08 06:21 | 48.35950 | 11.79343 | 1475 ft | 12 kts | 348° |
| 2026-05-08 06:21 | 48.36038 | 11.79323 | 1475 ft | 13 kts | 355° |
| 2026-05-08 06:22 | 48.36082 | 11.79280 | 1474 ft | 11 kts | 282° |
| 2026-05-08 06:22 | 48.36076 | 11.79109 | 1475 ft | 12 kts | 263° |
| 2026-05-08 06:22 | 48.36066 | 11.78976 | 1476 ft | 13 kts | 263° |
| 2026-05-08 06:22 | 48.36054 | 11.78826 | 1477 ft | 16 kts | 263° |
| 2026-05-08 06:23 | 48.36041 | 11.78644 | 1478 ft | 18 kts | 264° |
| 2026-05-08 06:23 | 48.36026 | 11.78435 | 1478 ft | 21 kts | 264° |
| 2026-05-08 06:23 | 48.36005 | 11.78196 | 1479 ft | 23 kts | 264° |
| 2026-05-08 06:23 | 48.35986 | 11.77942 | 1479 ft | 24 kts | 264° |
| 2026-05-08 06:24 | 48.35968 | 11.77683 | 1480 ft | 24 kts | 264° |
| 2026-05-08 06:24 | 48.35950 | 11.77426 | 1480 ft | 24 kts | 264° |
| 2026-05-08 06:24 | 48.35927 | 11.77169 | 1481 ft | 24 kts | 262° |
| 2026-05-08 06:24 | 48.35920 | 11.76923 | 1481 ft | 22 kts | 292° |
| 2026-05-08 06:25 | 48.36015 | 11.76824 | 1481 ft | 6 kts | 351° |
| 2026-05-08 06:25 | 48.36066 | 11.76812 | 1480 ft | 9 kts | 352° |
| 2026-05-08 06:25 | 48.36156 | 11.76795 | 1480 ft | 16 kts | 359° |
| 2026-05-08 06:25 | 48.36270 | 11.76886 | 1479 ft | 20 kts | 56° |
| 2026-05-08 06:26 | 48.36296 | 11.77019 | 1479 ft | 0 kts | 81° |
| 2026-05-08 06:26 | 48.36297 | 11.77028 | 1479 ft | 1 kts | 82° |
| 2026-05-08 06:26 | 48.36297 | 11.77038 | 1479 ft | 0 kts | 82° |
| 2026-05-08 06:26 | 48.36311 | 11.77194 | 1478 ft | 49 kts | 83° |
| 2026-05-08 06:27 | 48.36382 | 11.78118 | 1476 ft | 125 kts | 84° |
| 2026-05-08 06:27 | 48.36507 | 11.79678 | 1645 ft | 168 kts | 82° |
| 2026-05-08 06:27 | 48.36671 | 11.81488 | 2240 ft | 182 kts | 83° |
| 2026-05-08 06:27 | 48.36788 | 11.83245 | 3217 ft | 168 kts | 83° |
| 2026-05-08 06:28 | 48.36920 | 11.85086 | 3518 ft | 184 kts | 77° |
| 2026-05-08 06:28 | 48.37569 | 11.86770 | 3809 ft | 198 kts | 39° |
| 2026-05-08 06:28 | 48.38880 | 11.87539 | 4079 ft | 216 kts | 4° |
| 2026-05-08 06:28 | 48.40429 | 11.87382 | 4428 ft | 233 kts | 346° |
| 2026-05-08 06:29 | 48.41882 | 11.86213 | 4805 ft | 251 kts | 320° |
| 2026-05-08 06:29 | 48.43135 | 11.84254 | 5352 ft | 263 kts | 311° |
| 2026-05-08 06:29 | 48.44313 | 11.82174 | 6105 ft | 265 kts | 311° |
| 2026-05-08 06:29 | 48.45498 | 11.80075 | 6882 ft | 267 kts | 310° |
| 2026-05-08 06:30 | 48.46699 | 11.77958 | 7612 ft | 270 kts | 310° |
| 2026-05-08 06:30 | 48.47922 | 11.75808 | 8348 ft | 272 kts | 310° |
| 2026-05-08 06:30 | 48.49162 | 11.73626 | 9133 ft | 273 kts | 309° |
| 2026-05-08 06:30 | 48.50394 | 11.71455 | 9796 ft | 277 kts | 309° |
| 2026-05-08 06:31 | 48.51653 | 11.69236 | 10400 ft | 284 kts | 309° |
| 2026-05-08 06:31 | 48.52957 | 11.66933 | 10733 ft | 300 kts | 309° |
| 2026-05-08 06:31 | 48.54355 | 11.64463 | 11097 ft | 317 kts | 309° |
| 2026-05-08 06:31 | 48.55824 | 11.61867 | 11476 ft | 332 kts | 309° |
| 2026-05-08 06:32 | 48.57336 | 11.59190 | 11822 ft | 346 kts | 309° |
| 2026-05-08 06:32 | 48.58944 | 11.56342 | 12172 ft | 361 kts | 309° |
| 2026-05-08 06:32 | 48.60595 | 11.53414 | 12658 ft | 370 kts | 309° |
| 2026-05-08 06:32 | 48.62261 | 11.50457 | 13300 ft | 374 kts | 309° |
| 2026-05-08 06:33 | 48.63957 | 11.47443 | 13955 ft | 378 kts | 309° |
| 2026-05-08 06:33 | 48.65668 | 11.44398 | 14584 ft | 383 kts | 309° |
| 2026-05-08 06:33 | 48.67404 | 11.41306 | 15255 ft | 386 kts | 309° |
| 2026-05-08 06:33 | 48.69147 | 11.38232 | 15915 ft | 389 kts | 312° |
| 2026-05-08 06:34 | 48.71154 | 11.35472 | 16529 ft | 395 kts | 322° |
| 2026-05-08 06:34 | 48.72666 | 11.33863 | 16934 ft | 398 kts | 324° |
| 2026-05-08 06:34 | 48.75383 | 11.31119 | 17693 ft | 401 kts | 324° |
| 2026-05-08 06:34 | 48.77709 | 11.28772 | 18299 ft | 405 kts | 324° |
| 2026-05-08 06:35 | 48.80059 | 11.26396 | 18902 ft | 408 kts | 324° |
| 2026-05-08 06:35 | 48.82436 | 11.23988 | 19500 ft | 411 kts | 324° |
| 2026-05-08 06:35 | 48.84935 | 11.21852 | 20065 ft | 417 kts | 333° |
| 2026-05-08 06:35 | 48.87658 | 11.20287 | 20618 ft | 422 kts | 339° |
| 2026-05-08 06:36 | 48.90424 | 11.18887 | 21169 ft | 425 kts | 339° |
| 2026-05-08 06:36 | 48.93265 | 11.17454 | 21686 ft | 428 kts | 339° |
| 2026-05-08 06:36 | 48.96092 | 11.16025 | 22221 ft | 432 kts | 339° |
| 2026-05-08 06:36 | 48.98000 | 11.15058 | 22573 ft | 434 kts | 339° |
| 2026-05-08 06:37 | 49.01803 | 11.13127 | 23266 ft | 438 kts | 339° |
| 2026-05-08 06:37 | 49.04696 | 11.11655 | 23782 ft | 441 kts | 339° |
| 2026-05-08 06:37 | 49.07611 | 11.10169 | 24285 ft | 444 kts | 339° |
| 2026-05-08 06:37 | 49.10555 | 11.08665 | 24752 ft | 448 kts | 339° |
| 2026-05-08 06:38 | 49.13506 | 11.07159 | 25204 ft | 452 kts | 339° |
| 2026-05-08 06:38 | 49.16506 | 11.05628 | 25677 ft | 455 kts | 339° |
| 2026-05-08 06:38 | 49.19508 | 11.04095 | 26152 ft | 457 kts | 339° |
| 2026-05-08 06:38 | 49.22498 | 11.02558 | 26583 ft | 460 kts | 339° |
| 2026-05-08 06:39 | 49.25555 | 11.00984 | 26999 ft | 464 kts | 339° |
| 2026-05-08 06:39 | 49.28603 | 10.99412 | 27416 ft | 467 kts | 339° |
| 2026-05-08 06:39 | 49.31692 | 10.97817 | 27841 ft | 469 kts | 339° |
| 2026-05-08 06:39 | 49.34773 | 10.96048 | 28260 ft | 469 kts | 333° |
| 2026-05-08 06:40 | 49.36703 | 10.94530 | 28511 ft | 469 kts | 327° |
| 2026-05-08 06:40 | 49.37924 | 10.93365 | 28673 ft | 469 kts | 323° |
| 2026-05-08 06:40 | 49.40477 | 10.90297 | 29024 ft | 469 kts | 315° |
| 2026-05-08 06:40 | 49.42034 | 10.87885 | 29253 ft | 470 kts | 309° |
| 2026-05-08 06:41 | 49.48024 | 10.76640 | 30337 ft | 475 kts | 307° |
| 2026-05-08 06:41 | 49.50037 | 10.72807 | 30637 ft | 478 kts | 307° |